Flight Track Log - Related Links

Times and Time Zones

All times are in EDT time to prevent confusion due to time zone crossing. See the N730DF flight status page for this flight to view local times or setup timezone preferences in your user account.

Time Position Orientation Groundspeed Altitude Reporting Facility
EDT Latitude Longitude Course Direction KTS MPH feet Rate Location/Type
Thu 10:14:53 AM 27.9333 -82.7000 319° Northwest 169 194 700  Level Tampa TRACON
Thu 10:15:24 AM 27.9500 -82.7167 319° Northwest 198 228 1,400 1,451 Climbing Tampa TRACON
Thu 10:16:24 AM 27.9500 -82.8000 270° West 263 303 2,900 1,150 Climbing Tampa TRACON
Thu 10:17:24 AM 27.9167 -82.8667 241° Southwest 267 307 3,700 1,752 Climbing Tampa TRACON
Thu 10:18:17 AM 27.8750 -82.9067 220° Southwest 287 330 6,200 2,549 Climbing Miami Center
Thu 10:19:17 AM 27.8033 -82.8772 160° South 234 269 8,500 2,400 Climbing Miami Center
Thu 10:20:17 AM 27.7319 -82.8336 152° Southeast 254 292 11,000 2,500 Climbing Miami Center
Thu 10:21:17 AM 27.6547 -82.7872 152° Southeast 286 329 13,500 2,500 Climbing Miami Center
Thu 10:22:17 AM 27.5775 -82.7364 150° Southeast 306 352 16,000 2,250 Climbing Miami Center
Thu 10:23:17 AM 27.5308 -82.6544 123° Southeast 311 358 18,000 1,900 Climbing Miami Center
Thu 10:24:17 AM 27.4850 -82.5469 116° Southeast 322 371 19,800 1,500 Climbing Miami Center
Thu 10:25:17 AM 27.4367 -82.4464 118° Southeast 357 411 21,000 1,250 Climbing Miami Center
Thu 10:26:17 AM 27.3906 -82.3436 117° Southeast 372 428 22,300 1,250 Climbing Miami Center
Thu 10:27:17 AM 27.3419 -82.2456 119° Southeast 379 436 23,500 1,200 Climbing Miami Center
Thu 10:28:17 AM 27.2897 -82.1378 119° Southeast 389 448 24,700 1,350 Climbing Miami Center
Thu 10:29:17 AM 27.2317 -82.0139 118° Southeast 394 453 26,200 1,350 Climbing Miami Center
Thu 10:30:17 AM 27.1792 -81.9042 118° Southeast 400 460 27,400 1,000 Climbing Miami Center
Thu 10:31:17 AM 27.1225 -81.7919 120° Southeast 405 466 28,200 650 Climbing Miami Center
Thu 10:32:17 AM 27.0694 -81.6872 120° Southeast 411 473 28,700 550 Climbing Miami Center
Thu 10:33:17 AM 27.0053 -81.5517 118° Southeast 437 503 29,300 550 Climbing Miami Center
Thu 10:34:17 AM 26.9444 -81.4283 119° Southeast 452 520 29,800 600 Climbing Miami Center
Thu 10:35:17 AM 26.8836 -81.3047 119° Southeast 452 520 30,500 750 Climbing Miami Center
Thu 10:36:17 AM 26.8283 -81.1933 119° Southeast 452 520 31,300 850 Climbing Miami Center
Thu 10:37:17 AM 26.7694 -81.0703 118° Southeast 447 514 32,200 800 Climbing Miami Center
Thu 10:38:17 AM 26.7003 -80.9353 120° Southeast 447 514 32,900 350 Climbing Miami Center
Thu 10:39:17 AM 26.6389 -80.8100 119° Southeast 452 520 32,900 50 Level Miami Center
Thu 10:40:17 AM 26.5756 -80.6822 119° Southeast 459 528 33,000 50 Climbing Miami Center
Thu 10:41:17 AM 26.5158 -80.5622 119° Southeast 473 544 33,000  Level Miami Center
Thu 10:42:17 AM 26.4486 -80.4161 117° Southeast 478 550 33,000  Level Miami Center
Thu 10:43:17 AM 26.3786 -80.2819 120° Southeast 483 556 33,000  Level Miami Center
Thu 10:44:17 AM 26.3108 -80.1456 119° Southeast 488 562 33,000  Level Miami Center
Thu 10:45:17 AM 26.2447 -80.0117 119° Southeast 493 567 33,000 -50 Level Miami Center
Thu 10:46:17 AM 26.1767 -79.8781 120° Southeast 493 567 32,900 -50 Descending Miami Center
Thu 10:47:17 AM 26.1061 -79.7419 120° Southeast 493 567 32,900  Level Miami Center
Thu 10:48:17 AM 26.0378 -79.6086 120° Southeast 488 562 32,900 -950 Level Miami Center
Thu 10:49:17 AM 25.9692 -79.4728 119° Southeast 494 568 31,000 -1,950 Descending Miami Center
Thu 10:50:17 AM 25.9025 -79.3397 119° Southeast 494 568 29,000 -2,050 Descending Miami Center
Thu 10:51:17 AM 25.8336 -79.2092 120° Southeast 494 568 26,900 -2,100 Descending Miami Center
Thu 10:52:17 AM 25.7667 -79.0786 120° Southeast 489 563 24,800 -1,900 Descending Miami Center
Thu 10:53:17 AM 25.7181 -78.9761 118° Southeast 489 563 23,100 -1,950 Descending Miami Center
Thu 10:54:17 AM 25.6469 -78.8414 120° Southeast 476 548 20,900 -2,000 Descending Miami Center
Thu 10:55:17 AM 25.5775 -78.7225 123° Southeast 471 542 19,100 -1,650 Descending Miami Center
Thu 10:56:17 AM 25.5142 -78.5972 119° Southeast 466 536 17,600 -1,500 Descending Miami Center
Thu 10:57:17 AM 25.4508 -78.4744 120° Southeast 466 536 16,100 -1,500 Descending Miami Center
Thu 10:58:17 AM 25.3872 -78.3586 121° Southeast 455 524 14,600 -1,450 Descending Miami Center
Thu 10:59:17 AM 25.3319 -78.2453 118° Southeast 441 507 13,200 -750 Descending Miami Center
Thu 11:00:17 AM 25.2703 -78.1342 122° Southeast 412 474 13,100 -50 Descending Miami Center
Thu 11:01:17 AM 25.2167 -78.0303 120° Southeast 391 450 13,100  Level Miami Center

Login

Don't have an account? Register now (free) for customized features, flight alerts, and more!